Time;durP1;ratioP1;P1;durP2;ratioP2;P2;SDS_P1;SDS_P2;PMS_P1;PMS_P2;Temp;Humidity;BMP_temperature;BMP_pressure;BME280_temperature;BME280_humidity;BME280_pressure;Samples;Min_cycle;Max_cycle;Signal;HPM_P1;HPM_P2
2023/08/15 00:00:20;;;;;;;;;;;22.10;92.40;;;;;;5099435;28;19912;-75
2023/08/15 00:02:46;;;;;;;;;;;22.10;92.60;;;;;;5102821;28;19916;-74
2023/08/15 00:05:11;;;;;;;;;;;22.10;92.60;;;;;;5083816;28;19912;-74
2023/08/15 00:07:37;;;;;;;;;;;22.00;92.60;;;;;;5089315;28;19912;-75
2023/08/15 00:10:02;;;;;;;;;;;22.00;92.70;;;;;;5087912;28;20404;-74
2023/08/15 00:12:28;;;;;;;;;;;22.00;92.60;;;;;;5089950;28;19924;-75
2023/08/15 00:14:53;;;;;;;;;;;22.00;92.60;;;;;;5095675;28;20341;-74
2023/08/15 00:17:19;;;;;;;;;;;22.00;92.60;;;;;;5069402;28;19924;-74
2023/08/15 00:19:44;;;;;;;;;;;21.90;92.70;;;;;;5069721;28;20003;-74
2023/08/15 00:22:10;;;;;;;;;;;21.90;92.60;;;;;;5069642;28;19912;-75
2023/08/15 00:24:36;;;;;;;;;;;21.90;92.70;;;;;;5069692;28;19948;-74
2023/08/15 00:27:01;;;;;;;;;;;21.90;92.90;;;;;;5074245;28;19939;-75
2023/08/15 00:29:27;;;;;;;;;;;21.80;92.80;;;;;;5110215;28;19912;-74
2023/08/15 00:31:52;;;;;;;;;;;21.80;92.90;;;;;;5109964;28;19923;-74
2023/08/15 00:34:18;;;;;;;;;;;21.80;92.90;;;;;;5100024;28;19916;-74
2023/08/15 00:36:43;;;;;;;;;;;21.80;92.80;;;;;;5089210;28;20389;-74
2023/08/15 00:39:09;;;;;;;;;;;21.80;92.80;;;;;;5089581;28;19918;-74
2023/08/15 00:41:36;;;;;;;;;;;21.70;92.80;;;;;;5071445;28;20008;-74
2023/08/15 00:44:01;;;;;;;;;;;21.80;92.80;;;;;;5089651;28;20663;-74
2023/08/15 00:46:28;;;;;;;;;;;21.70;92.90;;;;;;5090268;28;19912;-75
2023/08/15 00:48:53;;;;;;;;;;;21.70;92.90;;;;;;5109944;28;20541;-74
2023/08/15 00:51:19;;;;;;;;;;;21.70;92.90;;;;;;5109798;28;19915;-74
2023/08/15 00:53:45;;;;;;;;;;;21.70;92.90;;;;;;5107611;28;20023;-74
2023/08/15 00:56:10;;;;;;;;;;;21.70;93.00;;;;;;5101676;28;20451;-74
2023/08/15 00:58:36;;;;;;;;;;;21.60;93.10;;;;;;5109643;28;19915;-74
2023/08/15 01:01:02;;;;;;;;;;;21.60;93.10;;;;;;5098970;28;19915;-74
2023/08/15 01:03:28;;;;;;;;;;;21.60;93.10;;;;;;5088978;28;20829;-74
2023/08/15 01:05:54;;;;;;;;;;;21.60;93.10;;;;;;5088019;28;19966;-74
2023/08/15 01:08:20;;;;;;;;;;;21.50;93.00;;;;;;5088852;28;19912;-75
2023/08/15 01:10:45;;;;;;;;;;;21.60;93.10;;;;;;5098138;28;19930;-75
2023/08/15 01:13:14;;;;;;;;;;;21.50;92.90;;;;;;5088930;28;20460;-75
2023/08/15 01:15:41;;;;;;;;;;;21.50;93.00;;;;;;5088597;28;19957;-74
2023/08/15 01:18:12;;;;;;;;;;;21.50;93.00;;;;;;5089254;28;20615;-74
2023/08/15 01:20:38;;;;;;;;;;;21.50;93.00;;;;;;5088774;28;20372;-74
2023/08/15 01:23:06;;;;;;;;;;;21.50;93.30;;;;;;5093314;28;19923;-74
2023/08/15 01:25:32;;;;;;;;;;;21.40;93.10;;;;;;5091711;28;19920;-74
2023/08/15 01:28:00;;;;;;;;;;;21.40;93.10;;;;;;5088411;28;19912;-74
2023/08/15 01:30:26;;;;;;;;;;;21.40;93.10;;;;;;5104224;28;19911;-74
2023/08/15 01:32:58;;;;;;;;;;;21.40;93.10;;;;;;5098381;28;19969;-74
2023/08/15 01:35:31;;;;;;;;;;;21.40;93.10;;;;;;5088270;28;19971;-74
2023/08/15 01:38:01;;;;;;;;;;;21.40;93.10;;;;;;5105622;28;19916;-74
2023/08/15 01:40:28;;;;;;;;;;;21.30;93.00;;;;;;5108683;28;19945;-74
2023/08/15 01:42:55;;;;;;;;;;;21.30;93.10;;;;;;5108858;28;20594;-74
2023/08/15 01:45:22;;;;;;;;;;;21.30;93.10;;;;;;5108330;28;19912;-74
2023/08/15 01:47:48;;;;;;;;;;;21.30;93.10;;;;;;5108691;28;19955;-74
2023/08/15 01:50:14;;;;;;;;;;;21.30;93.10;;;;;;5086035;28;20369;-74
2023/08/15 01:52:39;;;;;;;;;;;21.30;93.10;;;;;;5088053;28;20013;-74
2023/08/15 01:55:05;;;;;;;;;;;21.30;93.10;;;;;;5075005;28;19912;-74
2023/08/15 01:57:30;;;;;;;;;;;21.30;93.10;;;;;;5067815;28;19918;-74
2023/08/15 01:59:56;;;;;;;;;;;21.30;93.00;;;;;;5096422;28;20372;-75
2023/08/15 02:02:21;;;;;;;;;;;21.20;93.10;;;;;;5088181;28;20579;-74
2023/08/15 02:04:47;;;;;;;;;;;21.20;93.20;;;;;;5082372;28;19912;-75
2023/08/15 02:07:12;;;;;;;;;;;21.20;93.20;;;;;;5086973;28;19912;-75
2023/08/15 02:09:38;;;;;;;;;;;21.20;93.10;;;;;;5087957;28;19935;-75
2023/08/15 02:12:03;;;;;;;;;;;21.20;93.10;;;;;;5081334;28;19973;-74
2023/08/15 02:14:29;;;;;;;;;;;21.20;93.10;;;;;;5088051;28;19916;-74
2023/08/15 02:16:54;;;;;;;;;;;21.20;93.20;;;;;;5086350;28;20023;-74
2023/08/15 02:19:20;;;;;;;;;;;21.20;93.20;;;;;;5102363;28;19922;-73
2023/08/15 02:21:45;;;;;;;;;;;21.20;93.20;;;;;;5108073;28;19919;-74
2023/08/15 02:24:11;;;;;;;;;;;21.10;93.20;;;;;;5102562;28;19997;-74
2023/08/15 02:26:36;;;;;;;;;;;21.10;93.00;;;;;;5088053;28;20006;-74
2023/08/15 02:29:03;;;;;;;;;;;21.10;93.10;;;;;;5068450;28;19912;-74
2023/08/15 02:31:30;;;;;;;;;;;21.10;93.10;;;;;;5078210;28;20369;-74
2023/08/15 02:33:55;;;;;;;;;;;21.10;93.20;;;;;;5081094;28;19951;-73
2023/08/15 02:36:21;;;;;;;;;;;21.10;93.20;;;;;;5085263;28;20444;-74
2023/08/15 02:38:46;;;;;;;;;;;21.10;93.20;;;;;;5088714;28;19960;-74
2023/08/15 02:41:12;;;;;;;;;;;21.10;93.20;;;;;;5084422;28;20395;-74
2023/08/15 02:43:37;;;;;;;;;;;21.10;93.10;;;;;;5084159;28;19912;-74
2023/08/15 02:46:03;;;;;;;;;;;21.10;93.50;;;;;;5054431;28;19916;-74
2023/08/15 02:48:28;;;;;;;;;;;21.10;93.20;;;;;;5074199;28;19912;-74
2023/08/15 02:50:54;;;;;;;;;;;21.10;93.20;;;;;;5071830;28;20031;-74
2023/08/15 02:53:19;;;;;;;;;;;21.10;93.20;;;;;;5073404;28;19999;-74
2023/08/15 02:55:48;;;;;;;;;;;21.10;93.20;;;;;;5073929;28;19924;-74
2023/08/15 02:58:14;;;;;;;;;;;21.10;93.20;;;;;;5077225;28;19912;-74
2023/08/15 03:00:39;;;;;;;;;;;21.10;93.20;;;;;;5096586;28;20030;-74
2023/08/15 03:03:05;;;;;;;;;;;21.10;93.20;;;;;;5108037;28;20372;-73
2023/08/15 03:05:30;;;;;;;;;;;21.10;93.30;;;;;;5085842;28;19965;-74
2023/08/15 03:07:56;;;;;;;;;;;21.10;93.20;;;;;;5087422;28;19912;-74
2023/08/15 03:10:21;;;;;;;;;;;21.10;93.10;;;;;;5087574;28;20461;-74
2023/08/15 03:12:48;;;;;;;;;;;21.10;93.20;;;;;;5087512;28;20007;-73
2023/08/15 03:15:13;;;;;;;;;;;21.00;93.20;;;;;;5101769;28;19916;-73
2023/08/15 03:17:39;;;;;;;;;;;21.00;93.20;;;;;;5107213;28;19969;-73
2023/08/15 03:20:06;;;;;;;;;;;21.10;93.20;;;;;;5088671;28;19912;-74
2023/08/15 03:22:31;;;;;;;;;;;21.00;93.20;;;;;;5107028;28;19916;-74
2023/08/15 03:24:57;;;;;;;;;;;21.10;93.20;;;;;;5094979;28;19972;-74
2023/08/15 03:27:23;;;;;;;;;;;21.00;93.20;;;;;;5085536;28;19919;-74
2023/08/15 03:29:48;;;;;;;;;;;21.00;93.20;;;;;;5107180;28;19907;-73
2023/08/15 03:32:14;;;;;;;;;;;21.10;93.30;;;;;;5107551;28;20038;-74
2023/08/15 03:34:39;;;;;;;;;;;21.00;93.20;;;;;;5097083;28;19912;-75
2023/08/15 03:37:05;;;;;;;;;;;21.00;93.20;;;;;;5090906;28;19915;-75
2023/08/15 03:39:30;;;;;;;;;;;21.00;93.20;;;;;;5072450;28;19916;-75
2023/08/15 03:41:56;;;;;;;;;;;21.00;93.20;;;;;;5090859;28;20285;-74
2023/08/15 03:44:21;;;;;;;;;;;21.00;93.20;;;;;;5091876;28;19920;-76
2023/08/15 03:46:47;;;;;;;;;;;21.00;93.20;;;;;;5090357;28;19919;-77
2023/08/15 03:49:12;;;;;;;;;;;21.00;93.20;;;;;;5090919;28;19944;-76
2023/08/15 03:51:38;;;;;;;;;;;21.00;93.20;;;;;;5090369;28;20036;-76
2023/08/15 03:54:04;;;;;;;;;;;21.00;93.30;;;;;;5086225;28;19912;-76
2023/08/15 03:56:29;;;;;;;;;;;21.00;93.30;;;;;;5070500;28;19916;-76
2023/08/15 03:58:55;;;;;;;;;;;21.00;93.30;;;;;;5070171;28;20015;-76
2023/08/15 04:01:20;;;;;;;;;;;21.10;93.40;;;;;;5085876;28;19923;-76
2023/08/15 04:03:49;;;;;;;;;;;21.00;93.30;;;;;;5090246;28;19999;-76
2023/08/15 04:06:15;;;;;;;;;;;21.10;93.30;;;;;;5083965;28;19916;-77
2023/08/15 04:08:40;;;;;;;;;;;21.00;93.40;;;;;;5090220;28;19912;-76
2023/08/15 04:11:06;;;;;;;;;;;21.00;93.40;;;;;;5090279;28;19919;-76
2023/08/15 04:13:31;;;;;;;;;;;21.10;93.40;;;;;;5090486;28;19912;-77
2023/08/15 04:15:57;;;;;;;;;;;21.00;93.30;;;;;;5089888;28;19916;-77
2023/08/15 04:18:22;;;;;;;;;;;21.00;93.40;;;;;;5091707;28;19920;-76
2023/08/15 04:20:48;;;;;;;;;;;21.00;93.30;;;;;;5090445;28;19919;-76
2023/08/15 04:23:13;;;;;;;;;;;21.10;93.30;;;;;;5090920;28;19919;-76
2023/08/15 04:25:39;;;;;;;;;;;21.00;93.30;;;;;;5053827;28;19920;-76
2023/08/15 04:28:04;;;;;;;;;;;21.00;93.30;;;;;;5069754;28;19912;-77
2023/08/15 04:30:31;;;;;;;;;;;21.00;93.30;;;;;;5069757;28;19913;-77
2023/08/15 04:32:58;;;;;;;;;;;21.00;93.30;;;;;;5071572;28;19965;-76
2023/08/15 04:35:24;;;;;;;;;;;21.00;93.30;;;;;;5089360;28;20003;-77
2023/08/15 04:37:50;;;;;;;;;;;21.00;93.30;;;;;;5089909;28;20388;-76
2023/08/15 04:40:20;;;;;;;;;;;21.00;93.40;;;;;;5089989;28;19912;-76
2023/08/15 04:42:45;;;;;;;;;;;21.00;93.50;;;;;;5089912;28;20075;-77
2023/08/15 04:45:11;;;;;;;;;;;21.00;93.50;;;;;;5088630;28;19916;-75
2023/08/15 04:47:36;;;;;;;;;;;20.90;93.40;;;;;;5089272;28;19913;-76
2023/08/15 04:50:02;;;;;;;;;;;21.00;93.40;;;;;;5090508;28;19916;-76
2023/08/15 04:52:27;;;;;;;;;;;20.90;93.40;;;;;;5089516;28;19916;-76
2023/08/15 04:54:53;;;;;;;;;;;20.90;93.50;;;;;;5086452;28;19912;-76
2023/08/15 04:57:18;;;;;;;;;;;20.90;93.40;;;;;;5089234;28;19953;-76
2023/08/15 04:59:44;;;;;;;;;;;20.90;93.40;;;;;;5089293;28;19912;-76
2023/08/15 05:02:09;;;;;;;;;;;20.90;93.50;;;;;;5089122;28;20285;-76
2023/08/15 05:04:35;;;;;;;;;;;20.90;93.40;;;;;;5089023;28;19970;-77
2023/08/15 05:07:00;;;;;;;;;;;20.90;93.50;;;;;;5089102;28;19939;-77
2023/08/15 05:09:29;;;;;;;;;;;20.90;93.40;;;;;;5089262;28;20022;-76
2023/08/15 05:11:55;;;;;;;;;;;20.90;93.40;;;;;;5088967;28;20464;-75
2023/08/15 05:14:20;;;;;;;;;;;20.90;93.40;;;;;;5089152;28;19920;-76
2023/08/15 05:16:46;;;;;;;;;;;20.90;93.40;;;;;;5088925;28;19957;-76
2023/08/15 05:19:11;;;;;;;;;;;20.90;93.50;;;;;;5089036;28;19916;-76
2023/08/15 05:21:37;;;;;;;;;;;20.90;93.50;;;;;;5088962;28;19912;-76
2023/08/15 05:24:02;;;;;;;;;;;20.90;93.50;;;;;;5085385;28;20002;-76
2023/08/15 05:26:28;;;;;;;;;;;20.90;93.50;;;;;;5068446;28;19912;-76
2023/08/15 05:28:53;;;;;;;;;;;20.90;93.50;;;;;;5050776;28;19951;-76
2023/08/15 05:31:19;;;;;;;;;;;20.90;93.50;;;;;;5071608;28;19920;-75
2023/08/15 05:33:44;;;;;;;;;;;20.90;93.40;;;;;;5071468;28;20719;-76
2023/08/15 05:36:10;;;;;;;;;;;20.90;93.50;;;;;;5085982;28;19924;-76
2023/08/15 05:38:36;;;;;;;;;;;20.90;93.40;;;;;;5105796;28;20031;-76
2023/08/15 05:41:01;;;;;;;;;;;20.90;93.40;;;;;;5090707;28;20052;-76
2023/08/15 05:43:27;;;;;;;;;;;20.90;93.40;;;;;;5088230;28;19908;-76
2023/08/15 05:45:52;;;;;;;;;;;20.90;93.40;;;;;;5087756;28;20320;-76
2023/08/15 05:48:18;;;;;;;;;;;20.90;93.40;;;;;;5088181;28;19912;-76
2023/08/15 05:50:43;;;;;;;;;;;20.90;93.40;;;;;;5090376;28;19924;-76
2023/08/15 05:53:09;;;;;;;;;;;20.90;93.40;;;;;;5072985;28;19959;-76
2023/08/15 05:55:34;;;;;;;;;;;20.90;93.60;;;;;;5070279;28;19919;-76
2023/08/15 05:58:00;;;;;;;;;;;20.90;93.50;;;;;;5068038;28;19912;-76
2023/08/15 06:00:25;;;;;;;;;;;20.90;93.50;;;;;;5083165;28;19912;-76
2023/08/15 06:02:51;;;;;;;;;;;20.90;93.50;;;;;;5072825;28;19916;-76
2023/08/15 06:05:17;;;;;;;;;;;20.90;93.50;;;;;;5093373;28;20007;-76
2023/08/15 06:07:42;;;;;;;;;;;20.90;93.50;;;;;;5090518;28;19908;-76
2023/08/15 06:10:08;;;;;;;;;;;20.90;93.50;;;;;;5069569;28;19912;-76
2023/08/15 06:12:34;;;;;;;;;;;20.90;93.60;;;;;;5087988;28;19912;-76
2023/08/15 06:14:59;;;;;;;;;;;20.90;93.60;;;;;;5088266;28;19957;-76
2023/08/15 06:17:25;;;;;;;;;;;20.90;93.60;;;;;;5087695;28;20037;-76
2023/08/15 06:19:51;;;;;;;;;;;20.90;93.70;;;;;;5100203;28;20297;-76
2023/08/15 06:22:16;;;;;;;;;;;20.90;93.60;;;;;;5108147;28;20011;-76
2023/08/15 06:24:42;;;;;;;;;;;20.90;93.70;;;;;;5079346;28;19920;-76
2023/08/15 06:27:07;;;;;;;;;;;21.00;93.60;;;;;;5068724;28;19916;-75
2023/08/15 06:29:33;;;;;;;;;;;21.00;93.50;;;;;;5085949;28;19912;-76
2023/08/15 06:31:59;;;;;;;;;;;21.00;93.70;;;;;;5084693;28;19916;-75
2023/08/15 06:34:24;;;;;;;;;;;21.00;93.70;;;;;;5069233;28;19916;-76
2023/08/15 06:36:50;;;;;;;;;;;21.00;93.70;;;;;;5085873;28;19919;-76
2023/08/15 06:39:15;;;;;;;;;;;21.00;93.70;;;;;;5087200;28;20380;-76
2023/08/15 06:41:41;;;;;;;;;;;21.00;93.70;;;;;;5087371;28;19916;-76
2023/08/15 06:44:07;;;;;;;;;;;21.10;93.70;;;;;;5068964;28;19912;-75
2023/08/15 06:46:32;;;;;;;;;;;21.10;93.60;;;;;;5072230;28;20352;-75
2023/08/15 06:48:58;;;;;;;;;;;21.10;93.60;;;;;;5087024;28;20629;-75
2023/08/15 06:51:23;;;;;;;;;;;21.10;93.50;;;;;;5068719;28;19916;-75
2023/08/15 06:53:49;;;;;;;;;;;21.10;93.60;;;;;;5086714;28;19986;-75
2023/08/15 06:56:15;;;;;;;;;;;21.10;93.60;;;;;;5086802;28;19918;-75
2023/08/15 06:58:40;;;;;;;;;;;21.10;93.60;;;;;;5086888;28;19930;-75
2023/08/15 07:01:06;;;;;;;;;;;21.10;93.60;;;;;;5087498;28;19927;-75
2023/08/15 07:03:33;;;;;;;;;;;21.10;93.50;;;;;;5068550;28;20005;-76
2023/08/15 07:05:59;;;;;;;;;;;21.10;93.70;;;;;;5084225;28;19912;-75
2023/08/15 07:08:24;;;;;;;;;;;21.20;93.70;;;;;;5089092;28;20313;-75
2023/08/15 07:10:56;;;;;;;;;;;21.10;93.70;;;;;;5090637;28;19948;-75
2023/08/15 07:13:21;;;;;;;;;;;21.20;93.70;;;;;;5088461;28;19959;-75
2023/08/15 07:15:52;;;;;;;;;;;21.20;93.60;;;;;;5090412;28;20336;-75
2023/08/15 07:18:18;;;;;;;;;;;21.20;93.60;;;;;;5087816;28;20376;-75
2023/08/15 07:20:44;;;;;;;;;;;21.30;93.70;;;;;;5091385;28;20002;-75
2023/08/15 07:23:10;;;;;;;;;;;21.30;93.70;;;;;;5072474;28;20262;-75
2023/08/15 07:25:41;;;;;;;;;;;21.40;93.70;;;;;;5072827;28;19931;-75
2023/08/15 07:28:07;;;;;;;;;;;21.40;93.90;;;;;;5075336;28;20444;-75
2023/08/15 07:30:33;;;;;;;;;;;21.50;93.70;;;;;;5071926;28;20519;-75
2023/08/15 07:32:58;;;;;;;;;;;21.50;93.60;;;;;;5091041;28;19916;-75
2023/08/15 07:35:24;;;;;;;;;;;21.50;93.80;;;;;;5090750;28;19916;-75
2023/08/15 07:37:49;;;;;;;;;;;21.60;93.70;;;;;;5090809;28;19923;-75
2023/08/15 07:40:18;;;;;;;;;;;21.60;93.70;;;;;;5090902;28;19912;-75
2023/08/15 07:42:44;;;;;;;;;;;21.60;93.60;;;;;;5090892;28;20377;-75
2023/08/15 07:45:09;;;;;;;;;;;21.60;93.60;;;;;;5090803;28;19918;-74
2023/08/15 07:47:38;;;;;;;;;;;21.60;93.60;;;;;;5090828;28;19912;-75
2023/08/15 07:50:12;;;;;;;;;;;21.70;93.70;;;;;;5110569;28;20032;-74
2023/08/15 07:52:38;;;;;;;;;;;21.70;93.60;;;;;;5111237;28;20036;-74
2023/08/15 07:55:04;;;;;;;;;;;21.80;93.70;;;;;;5097779;28;20369;-75
2023/08/15 07:57:29;;;;;;;;;;;21.80;93.70;;;;;;5103028;28;19922;-74
2023/08/15 07:59:55;;;;;;;;;;;21.80;93.70;;;;;;5110777;28;19912;-75
2023/08/15 08:02:20;;;;;;;;;;;21.90;93.60;;;;;;5104401;28;19973;-75
2023/08/15 08:04:46;;;;;;;;;;;21.90;93.70;;;;;;5089994;28;20465;-75
2023/08/15 08:07:11;;;;;;;;;;;22.00;93.70;;;;;;5071893;28;19948;-74
2023/08/15 08:09:37;;;;;;;;;;;22.00;93.60;;;;;;5090327;28;19912;-74
2023/08/15 08:12:02;;;;;;;;;;;22.00;93.60;;;;;;5088807;28;19942;-74
2023/08/15 08:14:28;;;;;;;;;;;22.00;93.50;;;;;;5090179;28;20007;-74
2023/08/15 08:16:53;;;;;;;;;;;22.00;93.60;;;;;;5091075;28;19916;-74
2023/08/15 08:19:19;;;;;;;;;;;22.10;93.60;;;;;;5089547;28;19912;-74
2023/08/15 08:21:44;;;;;;;;;;;22.10;93.50;;;;;;5090097;28;19916;-74
2023/08/15 08:24:10;;;;;;;;;;;22.10;93.60;;;;;;5084213;28;20330;-74
2023/08/15 08:26:35;;;;;;;;;;;22.10;93.60;;;;;;5069714;28;20006;-74
2023/08/15 08:29:01;;;;;;;;;;;22.20;93.60;;;;;;5081655;28;19916;-75
2023/08/15 08:31:26;;;;;;;;;;;22.20;93.60;;;;;;5092292;28;19927;-75
2023/08/15 08:33:52;;;;;;;;;;;22.20;93.60;;;;;;5089278;28;19912;-75
2023/08/15 08:36:17;;;;;;;;;;;22.20;93.60;;;;;;5089440;28;19959;-75
2023/08/15 08:38:43;;;;;;;;;;;22.20;93.60;;;;;;5089988;28;20241;-74
2023/08/15 08:41:08;;;;;;;;;;;22.20;93.60;;;;;;5089700;28;20352;-75
2023/08/15 08:43:34;;;;;;;;;;;22.30;93.60;;;;;;5089667;28;19912;-75
2023/08/15 08:46:00;;;;;;;;;;;22.30;93.80;;;;;;5089581;28;20023;-74
2023/08/15 08:48:26;;;;;;;;;;;22.40;93.60;;;;;;5075726;28;19947;-74
2023/08/15 08:50:53;;;;;;;;;;;22.40;93.60;;;;;;5109806;28;19951;-74
2023/08/15 08:53:18;;;;;;;;;;;22.40;93.30;;;;;;5098314;28;19916;-74
2023/08/15 08:55:46;;;;;;;;;;;22.50;93.30;;;;;;5088727;28;19915;-75
2023/08/15 08:58:12;;;;;;;;;;;22.50;93.30;;;;;;5088939;28;20284;-75
2023/08/15 09:00:39;;;;;;;;;;;22.50;93.50;;;;;;5087905;28;19916;-74
2023/08/15 09:03:05;;;;;;;;;;;22.50;93.40;;;;;;5089257;28;20005;-74
2023/08/15 09:05:30;;;;;;;;;;;22.50;93.40;;;;;;5082774;28;19956;-75
2023/08/15 09:07:56;;;;;;;;;;;22.50;93.30;;;;;;5088666;28;19947;-75
2023/08/15 09:10:22;;;;;;;;;;;22.50;93.20;;;;;;5089004;28;19916;-73
2023/08/15 09:12:48;;;;;;;;;;;22.60;93.30;;;;;;5088697;28;19920;-73
2023/08/15 09:15:13;;;;;;;;;;;22.50;93.30;;;;;;5089069;28;19912;-75
2023/08/15 09:17:39;;;;;;;;;;;22.60;93.20;;;;;;5088986;28;20006;-74
2023/08/15 09:20:11;;;;;;;;;;;22.60;93.20;;;;;;5089976;28;19939;-74
2023/08/15 09:22:38;;;;;;;;;;;22.60;93.10;;;;;;5088874;28;19918;-73
2023/08/15 09:25:04;;;;;;;;;;;22.60;93.20;;;;;;5088733;28;19923;-73
2023/08/15 09:27:29;;;;;;;;;;;22.60;93.20;;;;;;5088838;28;19961;-73
2023/08/15 09:29:55;;;;;;;;;;;22.60;93.10;;;;;;5087634;28;20677;-72
2023/08/15 09:32:21;;;;;;;;;;;22.70;93.10;;;;;;5090032;28;19984;-72
2023/08/15 09:34:47;;;;;;;;;;;22.70;92.90;;;;;;5094900;28;19912;-72
2023/08/15 09:37:13;;;;;;;;;;;22.70;92.80;;;;;;5088524;28;20323;-73
2023/08/15 09:39:39;;;;;;;;;;;22.70;92.90;;;;;;5088907;28;19912;-73
2023/08/15 09:42:05;;;;;;;;;;;22.70;92.80;;;;;;5088499;28;20003;-73
2023/08/15 09:44:33;;;;;;;;;;;22.80;92.70;;;;;;5088507;28;19912;-74
2023/08/15 09:46:59;;;;;;;;;;;22.80;92.60;;;;;;5095410;28;19926;-72
2023/08/15 09:49:25;;;;;;;;;;;22.80;92.70;;;;;;5108395;28;20003;-72
2023/08/15 09:51:51;;;;;;;;;;;22.80;92.60;;;;;;5086366;28;19919;-72
2023/08/15 09:54:18;;;;;;;;;;;22.80;92.60;;;;;;5081732;28;19942;-73
2023/08/15 09:56:44;;;;;;;;;;;22.90;92.60;;;;;;5075619;28;19912;-72
2023/08/15 09:59:09;;;;;;;;;;;22.90;92.50;;;;;;5087414;28;19919;-72
2023/08/15 10:01:37;;;;;;;;;;;22.90;92.40;;;;;;5100958;28;20634;-73
2023/08/15 10:04:07;;;;;;;;;;;22.90;92.40;;;;;;5099066;28;19916;-72
2023/08/15 10:06:33;;;;;;;;;;;22.90;92.30;;;;;;5087537;28;19912;-72
2023/08/15 10:08:59;;;;;;;;;;;23.00;92.30;;;;;;5088043;28;19920;-72
2023/08/15 10:11:27;;;;;;;;;;;23.00;92.30;;;;;;5084830;28;19927;-71
2023/08/15 10:13:53;;;;;;;;;;;23.00;92.30;;;;;;5077600;28;20395;-71
2023/08/15 10:16:18;;;;;;;;;;;23.00;92.10;;;;;;5078902;28;19930;-72
2023/08/15 10:18:51;;;;;;;;;;;23.00;92.20;;;;;;5080104;28;19912;-71
2023/08/15 10:21:17;;;;;;;;;;;23.10;92.00;;;;;;5081305;28;19937;-71
2023/08/15 10:23:42;;;;;;;;;;;23.10;92.10;;;;;;5078688;28;19913;-71
2023/08/15 10:26:08;;;;;;;;;;;23.10;92.20;;;;;;5082376;28;19920;-72
2023/08/15 10:28:34;;;;;;;;;;;23.10;92.10;;;;;;5082043;28;19915;-71
2023/08/15 10:31:00;;;;;;;;;;;23.20;92.00;;;;;;5079586;28;20343;-71
2023/08/15 10:33:26;;;;;;;;;;;23.20;92.10;;;;;;5081083;28;20325;-71
2023/08/15 10:35:55;;;;;;;;;;;23.30;92.00;;;;;;5080347;28;19959;-71
2023/08/15 10:38:21;;;;;;;;;;;23.30;91.90;;;;;;5080400;28;19912;-71
2023/08/15 10:40:47;;;;;;;;;;;23.30;91.90;;;;;;5085714;28;19916;-72
2023/08/15 10:43:14;;;;;;;;;;;23.30;91.80;;;;;;5091166;28;20418;-72
2023/08/15 10:45:50;;;;;;;;;;;23.40;92.10;;;;;;5091740;28;19919;-71
2023/08/15 10:48:35;;;;;;;;;;;23.40;92.20;;;;;;5089533;28;19916;-71
2023/08/15 10:51:00;;;;;;;;;;;23.40;92.10;;;;;;5081901;28;19912;-72
2023/08/15 10:53:26;;;;;;;;;;;23.40;91.90;;;;;;5096366;28;19919;-71
2023/08/15 10:55:53;;;;;;;;;;;23.40;92.30;;;;;;5091829;28;19919;-71
2023/08/15 10:58:20;;;;;;;;;;;23.40;92.30;;;;;;5100032;28;19912;-71
2023/08/15 11:00:46;;;;;;;;;;;23.40;92.20;;;;;;5090569;28;19913;-72
2023/08/15 11:03:11;;;;;;;;;;;23.50;92.20;;;;;;5091527;28;19918;-72
2023/08/15 11:05:37;;;;;;;;;;;23.50;92.10;;;;;;5090823;28;19937;-71
2023/08/15 11:08:12;;;;;;;;;;;23.60;92.00;;;;;;5083964;28;19920;-72
2023/08/15 11:10:45;;;;;;;;;;;23.60;92.00;;;;;;5103807;28;19923;-72
2023/08/15 11:13:10;;;;;;;;;;;23.70;92.10;;;;;;5091531;28;19920;-71
2023/08/15 11:15:36;;;;;;;;;;;23.70;92.00;;;;;;5090999;28;19912;-71
2023/08/15 11:18:02;;;;;;;;;;;23.70;92.00;;;;;;5091318;28;20519;-73
2023/08/15 11:20:29;;;;;;;;;;;23.70;92.10;;;;;;5091337;28;20010;-73
2023/08/15 11:22:58;;;;;;;;;;;23.70;92.00;;;;;;5091252;28;19984;-73
2023/08/15 11:25:23;;;;;;;;;;;23.80;92.00;;;;;;5080691;28;20276;-74
2023/08/15 11:27:52;;;;;;;;;;;23.80;92.00;;;;;;5108857;28;19912;-72
2023/08/15 11:30:18;;;;;;;;;;;23.90;92.00;;;;;;5090002;28;19908;-73
2023/08/15 11:32:43;;;;;;;;;;;23.90;92.00;;;;;;5091006;28;19976;-72
2023/08/15 11:35:09;;;;;;;;;;;24.00;91.90;;;;;;5090745;28;19912;-73
2023/08/15 11:37:36;;;;;;;;;;;24.00;91.80;;;;;;5091166;28;19912;-75
2023/08/15 11:40:02;;;;;;;;;;;24.10;91.80;;;;;;5091373;28;19916;-72
2023/08/15 11:42:27;;;;;;;;;;;24.20;91.60;;;;;;5090776;28;20707;-73
2023/08/15 11:45:09;;;;;;;;;;;24.30;91.40;;;;;;5090831;28;19998;-72
2023/08/15 11:47:35;;;;;;;;;;;24.40;91.40;;;;;;5072145;28;19916;-75
2023/08/15 11:50:08;;;;;;;;;;;24.50;91.30;;;;;;5072353;28;20337;-73
2023/08/15 11:52:40;;;;;;;;;;;24.60;91.20;;;;;;5090738;28;19927;-73
2023/08/15 11:55:06;;;;;;;;;;;24.60;91.10;;;;;;5076539;28;19934;-73
2023/08/15 11:57:35;;;;;;;;;;;24.70;91.00;;;;;;5089865;28;20444;-72
2023/08/15 12:00:01;;;;;;;;;;;24.80;91.00;;;;;;5090213;28;20539;-73
2023/08/15 12:02:27;;;;;;;;;;;24.80;90.90;;;;;;5085774;28;20490;-73
2023/08/15 12:04:52;;;;;;;;;;;24.90;90.90;;;;;;5088888;28;19912;-73
2023/08/15 12:07:19;;;;;;;;;;;25.00;90.90;;;;;;5089805;28;19912;-74
2023/08/15 12:09:45;;;;;;;;;;;25.10;90.90;;;;;;5090424;28;19938;-74
2023/08/15 12:12:19;;;;;;;;;;;25.10;91.00;;;;;;5066096;28;19920;-74
2023/08/15 12:14:45;;;;;;;;;;;25.20;91.00;;;;;;5090568;28;19920;-73
2023/08/15 12:17:10;;;;;;;;;;;25.30;91.00;;;;;;5089976;28;19917;-75
2023/08/15 12:19:36;;;;;;;;;;;25.40;90.80;;;;;;5090053;28;19962;-76
2023/08/15 12:22:02;;;;;;;;;;;25.40;90.80;;;;;;5090417;28;19965;-74
2023/08/15 12:24:28;;;;;;;;;;;25.50;90.70;;;;;;5081886;28;20443;-74
2023/08/15 12:26:53;;;;;;;;;;;25.60;90.50;;;;;;5073844;28;19966;-72
2023/08/15 12:29:19;;;;;;;;;;;25.60;90.40;;;;;;5089641;28;19916;-72
2023/08/15 12:31:45;;;;;;;;;;;25.70;90.50;;;;;;5087488;28;19924;-72
2023/08/15 12:34:10;;;;;;;;;;;25.70;90.60;;;;;;5089465;28;19919;-72
2023/08/15 12:36:36;;;;;;;;;;;25.70;90.50;;;;;;5089380;28;19940;-73
2023/08/15 12:39:01;;;;;;;;;;;25.70;90.50;;;;;;5089792;28;20692;-72
2023/08/15 12:41:27;;;;;;;;;;;25.80;90.60;;;;;;5089718;28;19931;-73
2023/08/15 12:43:53;;;;;;;;;;;25.80;90.50;;;;;;5089652;28;19916;-73
2023/08/15 12:46:18;;;;;;;;;;;25.80;90.50;;;;;;5089802;28;19916;-73
2023/08/15 12:48:44;;;;;;;;;;;25.80;90.60;;;;;;5089490;28;20572;-72
2023/08/15 12:51:09;;;;;;;;;;;25.90;90.20;;;;;;5089418;28;19912;-73
2023/08/15 12:53:35;;;;;;;;;;;26.00;90.40;;;;;;5089026;28;19912;-73
2023/08/15 12:56:00;;;;;;;;;;;26.00;90.30;;;;;;5091372;28;19912;-73
2023/08/15 12:58:26;;;;;;;;;;;26.10;90.20;;;;;;5089285;28;19957;-73
2023/08/15 13:00:51;;;;;;;;;;;26.10;90.20;;;;;;5089066;28;20533;-73
2023/08/15 13:03:20;;;;;;;;;;;26.20;90.00;;;;;;5090066;28;19916;-72
2023/08/15 13:05:47;;;;;;;;;;;26.30;90.00;;;;;;5080625;28;19919;-73
2023/08/15 13:08:14;;;;;;;;;;;26.30;89.70;;;;;;5089039;28;20278;-73
2023/08/15 13:10:40;;;;;;;;;;;26.30;89.80;;;;;;5085580;28;19950;-72
2023/08/15 13:13:05;;;;;;;;;;;26.40;90.10;;;;;;5073210;28;20313;-73
2023/08/15 13:15:31;;;;;;;;;;;26.40;90.00;;;;;;5109138;28;20476;-73
2023/08/15 13:17:56;;;;;;;;;;;26.40;89.90;;;;;;5109278;28;19908;-72
2023/08/15 13:20:22;;;;;;;;;;;26.50;90.00;;;;;;5108570;28;19922;-73
2023/08/15 13:22:47;;;;;;;;;;;26.50;89.30;;;;;;5109250;28;19911;-72
2023/08/15 13:25:12;;;;;;;;;;;26.50;89.30;;;;;;5074022;28;19937;-73
2023/08/15 13:27:45;;;;;;;;;;;26.60;89.70;;;;;;5125639;27;20654;-72
2023/08/15 13:30:11;;;;;;;;;;;26.50;89.80;;;;;;5125291;27;19926;-71
2023/08/15 13:32:36;;;;;;;;;;;26.60;89.10;;;;;;5120194;27;19912;-71
2023/08/15 13:35:02;;;;;;;;;;;26.60;89.10;;;;;;5125471;27;19911;-71
2023/08/15 13:37:28;;;;;;;;;;;26.60;88.90;;;;;;5125543;27;19959;-71
2023/08/15 13:39:57;;;;;;;;;;;26.60;89.40;;;;;;5125712;27;19965;-71
2023/08/15 13:42:22;;;;;;;;;;;26.60;89.30;;;;;;5125275;27;19950;-71
2023/08/15 13:44:48;;;;;;;;;;;26.60;89.00;;;;;;5125830;27;19950;-71
2023/08/15 13:47:13;;;;;;;;;;;26.60;89.10;;;;;;5122969;27;19911;-71
2023/08/15 13:49:39;;;;;;;;;;;26.60;89.00;;;;;;5123908;27;19912;-71
2023/08/15 13:52:04;;;;;;;;;;;26.60;89.00;;;;;;5130043;27;19918;-71
2023/08/15 13:54:30;;;;;;;;;;;26.60;88.90;;;;;;5125577;28;19938;-71
2023/08/15 13:56:55;;;;;;;;;;;26.60;88.50;;;;;;5125707;27;19919;-71
2023/08/15 13:59:21;;;;;;;;;;;26.60;89.20;;;;;;5121136;27;19914;-71
2023/08/15 14:01:46;;;;;;;;;;;26.60;89.00;;;;;;5130111;27;20284;-72
2023/08/15 14:04:13;;;;;;;;;;;26.60;89.20;;;;;;5132224;27;19918;-74
2023/08/15 14:06:38;;;;;;;;;;;26.60;89.10;;;;;;5138677;27;20011;-71
2023/08/15 14:09:04;;;;;;;;;;;26.60;88.80;;;;;;5132295;27;20403;-71